Observation data for Graham on 11/16/2019      Previous  Date       Current Mesonet Observations  Soil Data  Daily Summary Page  Observations in Plain Language
KGHS 160600Z 19007KT 09/M02 A3019 RMK A01 T00901018  RH  047%=      5-min Rain = 0
KGHS 160605Z 19007KT 09/M02 A3019 RMK A01 T00901017  RH  048%=      5-min Rain = 0
KGHS 160610Z 19007KT 09/M02 A3019 RMK A01 T00881017  RH  048%=      5-min Rain = 0
KGHS 160615Z 19007KT 09/M02 A3019 RMK A01 T00871016  RH  049%=      5-min Rain = 0
KGHS 160620Z 19008KT 09/M02 A3019 RMK A01 T00871017  RH  049%=      5-min Rain = 0
KGHS 160625Z 19008KT 09/M02 A3019 RMK A01 T00871017  RH  049%=      5-min Rain = 0
KGHS 160630Z 20008KT 09/M02 A3019 RMK A01 T00861016  RH  049%=      5-min Rain = 0
KGHS 160635Z 19008KT 09/M02 A3019 RMK A01 T00851016  RH  049%=      5-min Rain = 0
KGHS 160640Z 19007KT 08/M02 A3019 RMK A01 T00841016  RH  050%=      5-min Rain = 0
KGHS 160645Z 19006KT 08/M02 A3019 RMK A01 T00831015  RH  050%=      5-min Rain = 0
KGHS 160650Z 18006KT 08/M02 A3019 RMK A01 T00811015  RH  051%=      5-min Rain = 0
KGHS 160655Z 18006KT 08/M02 A3018 RMK A01 T00791015  RH  052%=      5-min Rain = 0
KGHS 160700Z 18007KT 08/M01 A3018 RMK A01 T00791014  RH  052%=      5-min Rain = 0
KGHS 160705Z 19007KT 08/M01 A3018 RMK A01 T00791014  RH  052%=      5-min Rain = 0
KGHS 160710Z 19007KT 08/M01 A3018 RMK A01 T00801014  RH  052%=      5-min Rain = 0
KGHS 160715Z 19007KT 08/M01 A3018 RMK A01 T00811013  RH  052%=      5-min Rain = 0
KGHS 160720Z 19006KT 08/M01 A3018 RMK A01 T00811013  RH  052%=      5-min Rain = 0
KGHS 160725Z 20007KT 08/M01 A3018 RMK A01 T00811012  RH  053%=      5-min Rain = 0
KGHS 160730Z 21007KT 08/M01 A3017 RMK A01 T00791012  RH  053%=      5-min Rain = 0
KGHS 160735Z 21008KT 08/M01 A3017 RMK A01 T00761011  RH  055%=      5-min Rain = 0
KGHS 160740Z 21008KT 07/M01 A3017 RMK A01 T00741009  RH  056%=      5-min Rain = 0
KGHS 160745Z 22008KT 07/M01 A3017 RMK A01 T00731009  RH  057%=      5-min Rain = 0
KGHS 160750Z 22008KT 07/M01 A3017 RMK A01 T00731009  RH  057%=      5-min Rain = 0
KGHS 160755Z 22009KT 07/M01 A3017 RMK A01 T00721009  RH  057%=      5-min Rain = 0
KGHS 160800Z 22008KT 07/M01 A3017 RMK A01 T00711009  RH  057%=      5-min Rain = 0
KGHS 160805Z 22007KT 07/M01 A3017 RMK A01 T00701008  RH  058%=      5-min Rain = 0
KGHS 160810Z 21007KT 07/M01 A3017 RMK A01 T00671008  RH  059%=      5-min Rain = 0
KGHS 160815Z 21008KT 07/M01 A3016 RMK A01 T00671007  RH  060%=      5-min Rain = 0
KGHS 160820Z 21008KT 07/M01 A3016 RMK A01 T00671007  RH  060%=      5-min Rain = 0
KGHS 160825Z 21008KT 07/M01 A3016 RMK A01 T00681007  RH  060%=      5-min Rain = 0
KGHS 160830Z 21009KT 07/M01 A3016 RMK A01 T00691006  RH  059%=      5-min Rain = 0
KGHS 160835Z 21009KT 07/M01 A3016 RMK A01 T00711006  RH  059%=      5-min Rain = 0
KGHS 160840Z 20009KT 07/M01 A3016 RMK A01 T00741006  RH  058%=      5-min Rain = 0
KGHS 160845Z 20007KT 07/M01 A3016 RMK A01 T00741005  RH  058%=      5-min Rain = 0
KGHS 160850Z 20008KT 07/M01 A3016 RMK A01 T00741005  RH  058%=      5-min Rain = 0
KGHS 160855Z 19008KT 07/M01 A3015 RMK A01 T00741005  RH  058%=      5-min Rain = 0
KGHS 160900Z 19007KT 07/M01 A3015 RMK A01 T00741005  RH  058%=      5-min Rain = 0
KGHS 160905Z 19007KT 07/M01 A3015 RMK A01 T00731005  RH  058%=      5-min Rain = 0
KGHS 160910Z 19007KT 07/M01 A3015 RMK A01 T00731006  RH  058%=      5-min Rain = 0
KGHS 160915Z 19006KT 07/M01 A3015 RMK A01 T00731005  RH  058%=      5-min Rain = 0
KGHS 160920Z 19007KT 07/M01 A3015 RMK A01 T00731005  RH  058%=      5-min Rain = 0
KGHS 160925Z 19007KT 07/M01 A3015 RMK A01 T00731005  RH  058%=      5-min Rain = 0
KGHS 160930Z 18008KT 07/M01 A3014 RMK A01 T00721005  RH  059%=      5-min Rain = 0
KGHS 160935Z 18008KT 07/M01 A3014 RMK A01 T00721005  RH  059%=      5-min Rain = 0
KGHS 160940Z 18008KT 07/M00 A3014 RMK A01 T00711004  RH  059%=      5-min Rain = 0
KGHS 160945Z 18007KT 07/M00 A3014 RMK A01 T00711004  RH  059%=      5-min Rain = 0
KGHS 160950Z 18007KT 07/M00 A3014 RMK A01 T00721003  RH  059%=      5-min Rain = 0
KGHS 160955Z 18007KT 07/M00 A3014 RMK A01 T00741003  RH  059%=      5-min Rain = 0
KGHS 161000Z 18006KT 07/M00 A3014 RMK A01 T00741003  RH  059%=      5-min Rain = 0
KGHS 161005Z 19006KT 07/M00 A3014 RMK A01 T00741003  RH  059%=      5-min Rain = 0
KGHS 161010Z 19006KT 07/M00 A3014 RMK A01 T00741002  RH  059%=      5-min Rain = 0
KGHS 161015Z 18005KT 07/M00 A3014 RMK A01 T00741002  RH  059%=      5-min Rain = 0
KGHS 161020Z 20005KT 07/M00 A3014 RMK A01 T00731002  RH  060%=      5-min Rain = 0
KGHS 161025Z 20008KT 07/M00 A3014 RMK A01 T00731001  RH  060%=      5-min Rain = 0
KGHS 161030Z 20007KT 07/M00 A3014 RMK A01 T00741001  RH  060%=      5-min Rain = 0
KGHS 161035Z 20007KT 07/M00 A3014 RMK A01 T00721001  RH  060%=      5-min Rain = 0
KGHS 161040Z 20007KT 07/M00 A3014 RMK A01 T00721001  RH  060%=      5-min Rain = 0
KGHS 161045Z 20007KT 07/M00 A3014 RMK A01 T00701001  RH  061%=      5-min Rain = 0
KGHS 161050Z 20006KT 07/M00 A3014 RMK A01 T00691001  RH  062%=      5-min Rain = 0
KGHS 161055Z 20006KT 07/M00 A3014 RMK A01 T00691001  RH  062%=      5-min Rain = 0
KGHS 161100Z 19006KT 07/M00 A3014 RMK A01 T00691002  RH  062%=      5-min Rain = 0
KGHS 161105Z 19006KT 07/M00 A3014 RMK A01 T00681002  RH  062%=      5-min Rain = 0
KGHS 161110Z 19006KT 07/M00 A3014 RMK A01 T00681002  RH  062%=      5-min Rain = 0
KGHS 161115Z 19006KT 07/M00 A3014 RMK A01 T00671003  RH  062%=      5-min Rain = 0
KGHS 161120Z 19006KT 07/M00 A3014 RMK A01 T00671003  RH  062%=      5-min Rain = 0
KGHS 161125Z 19006KT 07/M00 A3014 RMK A01 T00671003  RH  062%=      5-min Rain = 0
KGHS 161130Z 19007KT 07/M00 A3014 RMK A01 T00671003  RH  062%=      5-min Rain = 0
KGHS 161135Z 19007KT 07/M00 A3014 RMK A01 T00661003  RH  062%=      5-min Rain = 0
KGHS 161140Z 19006KT 07/M00 A3014 RMK A01 T00661003  RH  062%=      5-min Rain = 0
KGHS 161145Z 19006KT 06/M00 A3014 RMK A01 T00641003  RH  063%=      5-min Rain = 0
KGHS 161150Z 18005KT 06/M00 A3014 RMK A01 T00631004  RH  063%=      5-min Rain = 0
KGHS 161155Z 19006KT 06/M00 A3013 RMK A01 T00621004  RH  063%=      5-min Rain = 0
KGHS 161200Z 19006KT 06/M00 A3013 RMK A01 T00621004  RH  064%=      5-min Rain = 0
KGHS 161205Z 18004KT 06/M00 A3013 RMK A01 T00611004  RH  064%=      5-min Rain = 0
KGHS 161210Z 18004KT 06/M00 A3013 RMK A01 T00591004  RH  064%=      5-min Rain = 0
KGHS 161215Z 18004KT 06/M00 A3013 RMK A01 T00591004  RH  065%=      5-min Rain = 0
KGHS 161220Z 17005G11KT 06/M00 A3013 RMK A01 T00591004  RH  065%=      5-min Rain = 0
KGHS 161225Z 16003KT 06/M00 A3013 RMK A01 T00581004  RH  065%=      5-min Rain = 0
KGHS 161230Z 16003KT 06/M01 A3014 RMK A01 T00561005  RH  066%=      5-min Rain = 0
KGHS 161235Z 16002KT 06/M01 A3014 RMK A01 T00551005  RH  066%=      5-min Rain = 0
KGHS 161240Z 16002KT 05/M01 A3014 RMK A01 T00541005  RH  067%=      5-min Rain = 0
KGHS 161245Z 17002KT 06/M00 A3014 RMK A01 T00551004  RH  066%=      5-min Rain = 0
KGHS 161250Z 19003KT 06/M00 A3014 RMK A01 T00561004  RH  066%=      5-min Rain = 0
KGHS 161255Z 17004KT 06/M00 A3014 RMK A01 T00551004  RH  066%=      5-min Rain = 0
KGHS 161300Z 18003KT 06/M00 A3014 RMK A01 T00551004  RH  066%=      5-min Rain = 0
KGHS 161305Z 16002KT 05/M01 A3014 RMK A01 T00541005  RH  067%=      5-min Rain = 0
KGHS 161310Z 16002KT 05/M00 A3014 RMK A01 T00531004  RH  067%=      5-min Rain = 0
KGHS 161315Z 15003KT 05/M00 A3014 RMK A01 T00531004  RH  067%=      5-min Rain = 0
KGHS 161320Z 13002KT 05/M00 A3014 RMK A01 T00521004  RH  068%=      5-min Rain = 0
KGHS 161325Z 14003KT 05/M00 A3014 RMK A01 T00521004  RH  068%=      5-min Rain = 0
KGHS 161330Z 14003KT 05/M00 A3014 RMK A01 T00521003  RH  068%=      5-min Rain = 0
KGHS 161335Z 13003KT 05/M00 A3014 RMK A01 T00521004  RH  068%=      5-min Rain = 0
KGHS 161340Z 15003KT 05/M00 A3014 RMK A01 T00521003  RH  069%=      5-min Rain = 0
KGHS 161345Z 14003KT 05/M00 A3014 RMK A01 T00521002  RH  069%=      5-min Rain = 0
KGHS 161350Z 15004KT 05/M00 A3014 RMK A01 T00541001  RH  069%=      5-min Rain = 0
KGHS 161355Z 17004KT 06/00 A3014 RMK A01 T005600-0  RH  068%=      5-min Rain = 0
KGHS 161400Z 16004KT 06/00 A3014 RMK A01 T00560000  RH  068%=      5-min Rain = 0
KGHS 161405Z 13004KT 06/00 A3014 RMK A01 T005500-0  RH  068%=      5-min Rain = 0
KGHS 161410Z 15003KT 05/00 A3014 RMK A01 T00540000  RH  069%=      5-min Rain = 0
KGHS 161415Z 14003KT 05/00 A3014 RMK A01 T00540000  RH  069%=      5-min Rain = 0
KGHS 161420Z 16003KT 06/00 A3014 RMK A01 T00550001  RH  069%=      5-min Rain = 0
KGHS 161425Z 17004KT 06/00 A3014 RMK A01 T00560002  RH  069%=      5-min Rain = 0
KGHS 161430Z 17003KT 06/00 A3014 RMK A01 T00570002  RH  068%=      5-min Rain = 0
KGHS 161435Z 18003KT 06/00 A3014 RMK A01 T00570002  RH  069%=      5-min Rain = 0
KGHS 161440Z 17004KT 06/00 A3014 RMK A01 T00590004  RH  069%=      5-min Rain = 0
KGHS 161445Z 18003KT 06/01 A3014 RMK A01 T00640008  RH  068%=      5-min Rain = 0
KGHS 161450Z 18005KT 07/01 A3014 RMK A01 T00680007  RH  066%=      5-min Rain = 0
KGHS 161455Z 18005KT 07/01 A3014 RMK A01 T00720009  RH  065%=      5-min Rain = 0
KGHS 161500Z 17004KT 08/01 A3014 RMK A01 T00780012  RH  064%=      5-min Rain = 0
KGHS 161505Z 19004KT 08/01 A3014 RMK A01 T00820013  RH  063%=      5-min Rain = 0
KGHS 161510Z 18008KT 09/01 A3013 RMK A01 T00850012  RH  061%=      5-min Rain = 0
KGHS 161515Z 18007G12KT 09/01 A3014 RMK A01 T00880013  RH  060%=      5-min Rain = 0
KGHS 161520Z 19010G16KT 09/01 A3013 RMK A01 T00940013  RH  058%=      5-min Rain = 0
KGHS 161525Z 19010KT 10/01 A3013 RMK A01 T00970014  RH  057%=      5-min Rain = 0
KGHS 161530Z 20008KT 10/02 A3013 RMK A01 T01010015  RH  056%=      5-min Rain = 0
KGHS 161535Z 20011KT 10/02 A3013 RMK A01 T01030015  RH  055%=      5-min Rain = 0
KGHS 161540Z 20012KT 10/02 A3013 RMK A01 T01040015  RH  055%=      5-min Rain = 0
KGHS 161545Z 20012KT 11/02 A3013 RMK A01 T01050016  RH  055%=      5-min Rain = 0
KGHS 161550Z 21012KT 11/02 A3013 RMK A01 T01060017  RH  055%=      5-min Rain = 0
KGHS 161555Z 21012G17KT 11/02 A3013 RMK A01 T01070018  RH  055%=      5-min Rain = 0
KGHS 161600Z 20013KT 11/02 A3013 RMK A01 T01080018  RH  055%=      5-min Rain = 0
KGHS 161605Z 20013KT 11/02 A3013 RMK A01 T01090018  RH  054%=      5-min Rain = 0
KGHS 161610Z 20011KT 11/02 A3013 RMK A01 T01090019  RH  055%=      5-min Rain = 0
KGHS 161615Z 19011KT 11/02 A3013 RMK A01 T01100019  RH  054%=      5-min Rain = 0
KGHS 161620Z 19010KT 11/02 A3013 RMK A01 T01130020  RH  054%=      5-min Rain = 0
KGHS 161625Z 19010KT 12/02 A3013 RMK A01 T01170022  RH  053%=      5-min Rain = 0
KGHS 161630Z 19010KT 12/02 A3012 RMK A01 T01200023  RH  052%=      5-min Rain = 0
KGHS 161635Z 20010KT 12/02 A3012 RMK A01 T01230024  RH  052%=      5-min Rain = 0
KGHS 161640Z 20010KT 13/03 A3012 RMK A01 T01260025  RH  051%=      5-min Rain = 0
KGHS 161645Z 19009KT 13/03 A3012 RMK A01 T01280025  RH  050%=      5-min Rain = 0
KGHS 161650Z 18009KT 13/03 A3012 RMK A01 T01310027  RH  050%=      5-min Rain = 0
KGHS 161655Z 19009KT 14/03 A3012 RMK A01 T01350028  RH  049%=      5-min Rain = 0
KGHS 161700Z 19009G14KT 14/03 A3011 RMK A01 T01390029  RH  048%=      5-min Rain = 0
KGHS 161705Z 19013KT 14/03 A3011 RMK A01 T01410029  RH  048%=      5-min Rain = 0
KGHS 161710Z 19013KT 14/03 A301 RMK A01 T01400029  RH  048%=      5-min Rain = 0
KGHS 161715Z 20012G18KT 14/03 A301 RMK A01 T01420029  RH  047%=      5-min Rain = 0
KGHS 161720Z 20012KT 14/03 A301 RMK A01 T01440030  RH  047%=      5-min Rain = 0
KGHS 161725Z 20011KT 15/03 A301 RMK A01 T01460031  RH  047%=      5-min Rain = 0
KGHS 161730Z 18009KT 15/03 A301 RMK A01 T01480032  RH  046%=      5-min Rain = 0
KGHS 161735Z 17009KT 15/03 A3009 RMK A01 T01490032  RH  046%=      5-min Rain = 0
KGHS 161740Z 17010KT 15/03 A3009 RMK A01 T01510033  RH  046%=      5-min Rain = 0
KGHS 161745Z 17010KT 15/03 A3009 RMK A01 T01510033  RH  046%=      5-min Rain = 0
KGHS 161750Z 19011G16KT 15/03 A3009 RMK A01 T01480030  RH  046%=      5-min Rain = 0
KGHS 161755Z 17008KT 15/03 A3008 RMK A01 T01490033  RH  047%=      5-min Rain = 0
KGHS 161800Z 19009KT 15/03 A3008 RMK A01 T01510032  RH  046%=      5-min Rain = 0
KGHS 161805Z 17010G15KT 16/03 A3008 RMK A01 T01550033  RH  045%=      5-min Rain = 0
KGHS 161810Z 19010KT 16/03 A3007 RMK A01 T01580033  RH  044%=      5-min Rain = 0
KGHS 161815Z 18010KT 16/03 A3007 RMK A01 T01590034  RH  044%=      5-min Rain = 0
KGHS 161820Z 18013G19KT 16/03 A3006 RMK A01 T01610034  RH  043%=      5-min Rain = 0
KGHS 161825Z 18012G17KT 16/04 A3006 RMK A01 T01600035  RH  044%=      5-min Rain = 0
KGHS 161830Z 17011KT 16/04 A3005 RMK A01 T01620035  RH  044%=      5-min Rain = 0
KGHS 161835Z 18013KT 16/03 A3005 RMK A01 T01600034  RH  044%=      5-min Rain = 0
KGHS 161840Z 18013KT 16/03 A3005 RMK A01 T01550033  RH  045%=      5-min Rain = 0
KGHS 161845Z 18010KT 15/04 A3005 RMK A01 T01540035  RH  046%=      5-min Rain = 0
KGHS 161850Z 17011KT 16/04 A3004 RMK A01 T01550037  RH  046%=      5-min Rain = 0
KGHS 161855Z 16010KT 15/04 A3004 RMK A01 T01530037  RH  047%=      5-min Rain = 0
KGHS 161900Z 16010KT 15/04 A3004 RMK A01 T01490036  RH  048%=      5-min Rain = 0
KGHS 161905Z 17010KT 15/04 A3003 RMK A01 T01470036  RH  048%=      5-min Rain = 0
KGHS 161910Z 17010KT 15/04 A3003 RMK A01 T01500036  RH  047%=      5-min Rain = 0
KGHS 161915Z 18009KT 15/04 A3003 RMK A01 T01480035  RH  047%=      5-min Rain = 0
KGHS 161920Z 17008KT 15/04 A3003 RMK A01 T01510035  RH  047%=      5-min Rain = 0
KGHS 161925Z 17009KT 16/04 A3002 RMK A01 T01570035  RH  045%=      5-min Rain = 0
KGHS 161930Z 17010G15KT 16/04 A3002 RMK A01 T01630035  RH  043%=      5-min Rain = 0
KGHS 161935Z 17011G16KT 17/03 A3001 RMK A01 T01650034  RH  042%=      5-min Rain = 0
KGHS 161940Z 19012KT 17/03 A3001 RMK A01 T01680030  RH  040%=      5-min Rain = 0
KGHS 161945Z 19013KT 17/03 A3001 RMK A01 T01690027  RH  039%=      5-min Rain = 0
KGHS 161950Z 19011KT 17/03 A3001 RMK A01 T01670027  RH  040%=      5-min Rain = 0
KGHS 161955Z 18012KT 17/03 A3001 RMK A01 T01680030  RH  040%=      5-min Rain = 0
KGHS 162000Z 17011KT 17/03 A30 RMK A01 T01680030  RH  040%=      5-min Rain = 0
KGHS 162005Z 19012KT 17/03 A30 RMK A01 T01700029  RH  040%=      5-min Rain = 0
KGHS 162010Z 18011KT 17/03 A30 RMK A01 T01690027  RH  039%=      5-min Rain = 0
KGHS 162015Z 18010KT 17/03 A30 RMK A01 T01690027  RH  039%=      5-min Rain = 0
KGHS 162020Z 19011KT 17/03 A30 RMK A01 T01690027  RH  039%=      5-min Rain = 0
KGHS 162025Z 17010G15KT 17/03 A2999 RMK A01 T01710030  RH  040%=      5-min Rain = 0
KGHS 162030Z 17013KT 17/03 A2999 RMK A01 T01710028  RH  039%=      5-min Rain = 0
KGHS 162035Z 18010KT 17/03 A2999 RMK A01 T01700028  RH  039%=      5-min Rain = 0
KGHS 162040Z 17011KT 17/03 A2999 RMK A01 T01740028  RH  038%=      5-min Rain = 0
KGHS 162045Z 17010KT 18/03 A2999 RMK A01 T01760029  RH  038%=      5-min Rain = 0
KGHS 162050Z 17011G17KT 17/03 A2999 RMK A01 T01740027  RH  038%=      5-min Rain = 0
KGHS 162055Z 18013KT 17/03 A2999 RMK A01 T01730025  RH  038%=      5-min Rain = 0
KGHS 162100Z 18010G15KT 17/03 A2999 RMK A01 T01730027  RH  038%=      5-min Rain = 0
KGHS 162105Z 19012G17KT 18/03 A2999 RMK A01 T01780025  RH  036%=      5-min Rain = 0
KGHS 162110Z 20012KT 18/03 A2999 RMK A01 T01780025  RH  036%=      5-min Rain = 0
KGHS 162115Z 18011G17KT 18/03 A2999 RMK A01 T01770027  RH  037%=      5-min Rain = 0
KGHS 162120Z 18011G16KT 18/03 A2999 RMK A01 T01800028  RH  037%=      5-min Rain = 0
KGHS 162125Z 18013G18KT 18/03 A2999 RMK A01 T01770025  RH  037%=      5-min Rain = 0
KGHS 162130Z 19011KT 17/03 A2999 RMK A01 T01730025  RH  038%=      5-min Rain = 0
KGHS 162135Z 19013KT 17/03 A2999 RMK A01 T01720025  RH  038%=      5-min Rain = 0
KGHS 162140Z 19011KT 17/03 A2999 RMK A01 T01720025  RH  038%=      5-min Rain = 0
KGHS 162145Z 19009KT 17/03 A2999 RMK A01 T01730026  RH  038%=      5-min Rain = 0
KGHS 162150Z 21010G16KT 18/02 A2998 RMK A01 T01750024  RH  037%=      5-min Rain = 0
KGHS 162155Z 21007KT 18/03 A2998 RMK A01 T01760025  RH  037%=      5-min Rain = 0
KGHS 162200Z 21007KT 18/03 A2998 RMK A01 T01760026  RH  037%=      5-min Rain = 0
KGHS 162205Z 21006KT 18/03 A2998 RMK A01 T01760026  RH  037%=      5-min Rain = 0
KGHS 162210Z 22006KT 17/03 A2998 RMK A01 T01740028  RH  038%=      5-min Rain = 0
KGHS 162215Z 21005KT 17/03 A2998 RMK A01 T01740029  RH  039%=      5-min Rain = 0
KGHS 162220Z 19006KT 17/03 A2998 RMK A01 T01740028  RH  038%=      5-min Rain = 0
KGHS 162225Z 18010KT 18/03 A2998 RMK A01 T01750028  RH  038%=      5-min Rain = 0
KGHS 162230Z 18013KT 18/03 A2997 RMK A01 T01750027  RH  038%=      5-min Rain = 0
KGHS 162235Z 17011KT 17/03 A2997 RMK A01 T01740029  RH  038%=      5-min Rain = 0
KGHS 162240Z 18012KT 17/03 A2997 RMK A01 T01730029  RH  039%=      5-min Rain = 0
KGHS 162245Z 18009KT 17/03 A2997 RMK A01 T01740028  RH  038%=      5-min Rain = 0
KGHS 162250Z 18009KT 17/03 A2997 RMK A01 T01740029  RH  039%=      5-min Rain = 0
KGHS 162255Z 18008KT 18/03 A2997 RMK A01 T01750029  RH  038%=      5-min Rain = 0
KGHS 162300Z 18008KT 18/03 A2998 RMK A01 T01750029  RH  038%=      5-min Rain = 0
KGHS 162305Z 18009KT 17/03 A2998 RMK A01 T01740029  RH  039%=      5-min Rain = 0
KGHS 162310Z 18009KT 17/03 A2998 RMK A01 T01710029  RH  039%=      5-min Rain = 0
KGHS 162315Z 18009KT 17/03 A2997 RMK A01 T01690029  RH  040%=      5-min Rain = 0
KGHS 162320Z 17008KT 17/03 A2998 RMK A01 T01670030  RH  041%=      5-min Rain = 0
KGHS 162325Z 17010KT 17/03 A2997 RMK A01 T01660030  RH  041%=      5-min Rain = 0
KGHS 162330Z 17009KT 16/03 A2997 RMK A01 T01640031  RH  042%=      5-min Rain = 0
KGHS 162335Z 17008KT 16/03 A2998 RMK A01 T01610032  RH  043%=      5-min Rain = 0
KGHS 162340Z 18008KT 16/03 A2998 RMK A01 T01590031  RH  043%=      5-min Rain = 0
KGHS 162345Z 17009KT 16/03 A2998 RMK A01 T01590030  RH  043%=      5-min Rain = 0
KGHS 162350Z 17008KT 16/03 A2998 RMK A01 T01590029  RH  042%=      5-min Rain = 0
KGHS 162355Z 18009KT 16/03 A2998 RMK A01 T01580028  RH  042%=      5-min Rain = 0
KGHS 170000Z 18009KT 16/03 A2998 RMK A01 T01570028  RH  042%=      5-min Rain = 0
KGHS 170005Z 18010KT 16/03 A2998 RMK A01 T01570028  RH  042%=      5-min Rain = 0
KGHS 170010Z 18010KT 16/03 A2998 RMK A01 T01570028  RH  042%=      5-min Rain = 0
KGHS 170015Z 17009G14KT 16/03 A2998 RMK A01 T01560029  RH  043%=      5-min Rain = 0
KGHS 170020Z 17009KT 16/03 A2998 RMK A01 T01550029  RH  044%=      5-min Rain = 0
KGHS 170025Z 17010KT 15/03 A2998 RMK A01 T01530029  RH  044%=      5-min Rain = 0
KGHS 170030Z 17011KT 15/03 A2998 RMK A01 T01520029  RH  045%=      5-min Rain = 0
KGHS 170035Z 17011KT 15/03 A2998 RMK A01 T01530029  RH  044%=      5-min Rain = 0
KGHS 170040Z 17011KT 15/03 A2997 RMK A01 T01530030  RH  044%=      5-min Rain = 0
KGHS 170045Z 17011KT 15/03 A2997 RMK A01 T01520030  RH  045%=      5-min Rain = 0
KGHS 170050Z 17011KT 15/03 A2998 RMK A01 T01510030  RH  045%=      5-min Rain = 0
KGHS 170055Z 18010KT 15/03 A2998 RMK A01 T01520030  RH  045%=      5-min Rain = 0
KGHS 170100Z 17011KT 15/03 A2998 RMK A01 T01530030  RH  044%=      5-min Rain = 0
KGHS 170105Z 18013KT 15/03 A2998 RMK A01 T01530030  RH  044%=      5-min Rain = 0
KGHS 170110Z 18015KT 16/03 A2998 RMK A01 T01550030  RH  044%=      5-min Rain = 0
KGHS 170115Z 18013G18KT 16/03 A2997 RMK A01 T01550031  RH  044%=      5-min Rain = 0
KGHS 170120Z 18014KT 15/03 A2997 RMK A01 T01540032  RH  045%=      5-min Rain = 0
KGHS 170125Z 18015G21KT 15/03 A2997 RMK A01 T01540033  RH  045%=      5-min Rain = 0
KGHS 170130Z 17014G19KT 15/03 A2997 RMK A01 T01520034  RH  046%=      5-min Rain = 0
KGHS 170135Z 18014G21KT 15/04 A2997 RMK A01 T01490035  RH  047%=      5-min Rain = 0
KGHS 170140Z 17014KT 15/04 A2997 RMK A01 T01470036  RH  048%=      5-min Rain = 0
KGHS 170145Z 17012G17KT 14/04 A2997 RMK A01 T01440037  RH  050%=      5-min Rain = 0
KGHS 170150Z 17014G20KT 14/04 A2997 RMK A01 T01420038  RH  051%=      5-min Rain = 0
KGHS 170155Z 18013G18KT 14/04 A2997 RMK A01 T01410039  RH  051%=      5-min Rain = 0
KGHS 170200Z 18012KT 14/04 A2997 RMK A01 T01400040  RH  052%=      5-min Rain = 0
KGHS 170205Z 18011G16KT 14/04 A2997 RMK A01 T01390041  RH  053%=      5-min Rain = 0
KGHS 170210Z 18013G19KT 14/04 A2997 RMK A01 T01380041  RH  053%=      5-min Rain = 0
KGHS 170215Z 18011KT 14/04 A2997 RMK A01 T01370042  RH  054%=      5-min Rain = 0
KGHS 170220Z 18011KT 14/04 A2997 RMK A01 T01350042  RH  055%=      5-min Rain = 0
KGHS 170225Z 18009KT 13/04 A2997 RMK A01 T01330043  RH  055%=      5-min Rain = 0
KGHS 170230Z 18009KT 13/04 A2998 RMK A01 T01320043  RH  056%=      5-min Rain = 0
KGHS 170235Z 18009KT 13/04 A2998 RMK A01 T01310043  RH  056%=      5-min Rain = 0
KGHS 170240Z 19010G15KT 13/04 A2998 RMK A01 T01300043  RH  057%=      5-min Rain = 0
KGHS 170245Z 18010KT 13/04 A2997 RMK A01 T01290043  RH  057%=      5-min Rain = 0
KGHS 170250Z 18010KT 13/04 A2997 RMK A01 T01280044  RH  058%=      5-min Rain = 0
KGHS 170255Z 18010KT 13/04 A2998 RMK A01 T01270044  RH  058%=      5-min Rain = 0
KGHS 170300Z 18010KT 13/04 A2998 RMK A01 T01260044  RH  059%=      5-min Rain = 0
KGHS 170305Z 18010KT 13/05 A2998 RMK A01 T01260045  RH  059%=      5-min Rain = 0
KGHS 170310Z 18010KT 13/05 A2997 RMK A01 T01250045  RH  059%=      5-min Rain = 0
KGHS 170315Z 18010KT 12/05 A2997 RMK A01 T01240045  RH  060%=      5-min Rain = 0
KGHS 170320Z 18011KT 12/05 A2997 RMK A01 T01230046  RH  060%=      5-min Rain = 0
KGHS 170325Z 18012G17KT 12/05 A2997 RMK A01 T01230046  RH  060%=      5-min Rain = 0
KGHS 170330Z 19011G16KT 12/05 A2997 RMK A01 T01220046  RH  061%=      5-min Rain = 0
KGHS 170335Z 19011G16KT 12/05 A2997 RMK A01 T01220046  RH  061%=      5-min Rain = 0
KGHS 170340Z 19012G17KT 12/05 A2997 RMK A01 T01220046  RH  061%=      5-min Rain = 0
KGHS 170345Z 18011KT 12/05 A2997 RMK A01 T01220046  RH  061%=      5-min Rain = 0
KGHS 170350Z 19009KT 12/05 A2997 RMK A01 T01210046  RH  062%=      5-min Rain = 0
KGHS 170355Z 18008G13KT 12/05 A2997 RMK A01 T01180046  RH  063%=      5-min Rain = 0
KGHS 170400Z 19009KT 12/05 A2997 RMK A01 T01170046  RH  063%=      5-min Rain = 0
KGHS 170405Z 19008G13KT 12/05 A2997 RMK A01 T01160046  RH  064%=      5-min Rain = 0
KGHS 170410Z 19009KT 12/05 A2997 RMK A01 T01150046  RH  064%=      5-min Rain = 0
KGHS 170415Z 19007KT 11/05 A2997 RMK A01 T01140046  RH  064%=      5-min Rain = 0
KGHS 170420Z 18008KT 11/05 A2997 RMK A01 T01130046  RH  065%=      5-min Rain = 0
KGHS 170425Z 19007KT 11/05 A2997 RMK A01 T01120046  RH  065%=      5-min Rain = 0
KGHS 170430Z 19007KT 11/05 A2997 RMK A01 T01110046  RH  065%=      5-min Rain = 0
KGHS 170435Z 19006KT 11/05 A2997 RMK A01 T01090045  RH  066%=      5-min Rain = 0
KGHS 170440Z 20006KT 11/05 A2997 RMK A01 T01080045  RH  066%=      5-min Rain = 0
KGHS 170445Z 19005KT 11/05 A2996 RMK A01 T01070045  RH  067%=      5-min Rain = 0
KGHS 170450Z 18005KT 11/04 A2996 RMK A01 T01060044  RH  067%=      5-min Rain = 0
KGHS 170455Z 19007G12KT 10/04 A2996 RMK A01 T01040044  RH  068%=      5-min Rain = 0
KGHS 170500Z 19009KT 11/04 A2996 RMK A01 T01050044  RH  067%=      5-min Rain = 0
KGHS 170505Z 19008KT 10/04 A2997 RMK A01 T01040044  RH  068%=      5-min Rain = 0
KGHS 170510Z 19006KT 10/04 A2997 RMK A01 T01020044  RH  068%=      5-min Rain = 0
KGHS 170515Z 19005KT 10/04 A2997 RMK A01 T01000043  RH  069%=      5-min Rain = 0
KGHS 170520Z 20007KT 10/04 A2996 RMK A01 T01000043  RH  069%=      5-min Rain = 0
KGHS 170525Z 20005KT 10/04 A2996 RMK A01 T00990043  RH  070%=      5-min Rain = 0
KGHS 170530Z 19006KT 10/04 A2996 RMK A01 T00970043  RH  070%=      5-min Rain = 0
KGHS 170535Z 20006KT 10/04 A2996 RMK A01 T00970043  RH  070%=      5-min Rain = 0
KGHS 170540Z 20006KT 10/04 A2996 RMK A01 T00960043  RH  071%=      5-min Rain = 0
KGHS 170545Z 20006KT 10/04 A2996 RMK A01 T00960043  RH  071%=      5-min Rain = 0
KGHS 170550Z 20006G11KT 10/04 A2997 RMK A01 T00950042  RH  071%=      5-min Rain = 0
KGHS 170555Z 21005KT 09/04 A2997 RMK A01 T00940042  RH  071%=      5-min Rain = 0

Page generated in 0.0094 seconds.